createdAt,value
2023-03-31T00:01:58.382Z,11.41
2023-03-31T00:04:04.926Z,11.42
2023-03-31T00:06:12.178Z,11.43
2023-03-31T00:08:17.470Z,11.43
2023-03-31T00:10:20.124Z,11.44
2023-03-31T00:12:22.595Z,11.46
2023-03-31T00:14:25.162Z,11.44
2023-03-31T00:16:28.282Z,11.44
2023-03-31T00:18:31.380Z,11.44
2023-03-31T00:20:38.699Z,11.43
2023-03-31T00:22:46.481Z,11.44
2023-03-31T00:24:53.693Z,11.45
2023-03-31T00:26:57.516Z,11.44
2023-03-31T00:29:01.402Z,11.45
2023-03-31T00:31:07.068Z,11.45
2023-03-31T00:33:10.413Z,11.48
2023-03-31T00:35:13.828Z,11.52
2023-03-31T00:37:16.769Z,11.56
2023-03-31T00:39:19.579Z,11.58
2023-03-31T00:41:25.716Z,11.60
2023-03-31T00:43:34.813Z,11.61
2023-03-31T00:45:37.909Z,11.61
2023-03-31T00:47:44.358Z,11.61
2023-03-31T00:49:50.693Z,11.59
2023-03-31T00:52:00.124Z,11.57
2023-03-31T00:54:08.399Z,11.56
2023-03-31T00:56:15.746Z,11.54
2023-03-31T00:58:22.981Z,11.52
2023-03-31T01:00:32.475Z,11.52
2023-03-31T01:02:41.418Z,11.50
2023-03-31T01:04:51.032Z,11.49
2023-03-31T01:07:04.551Z,11.48
2023-03-31T01:09:07.257Z,11.50
2023-03-31T01:11:14.534Z,11.51
2023-03-31T01:13:20.503Z,11.51
2023-03-31T01:15:23.172Z,11.51
2023-03-31T01:17:28.318Z,11.50
2023-03-31T01:19:56.172Z,11.50
2023-03-31T01:22:20.576Z,11.49
2023-03-31T01:24:51.990Z,11.46
2023-03-31T01:27:34.980Z,11.43
2023-03-31T01:30:21.494Z,11.38
2023-03-31T01:32:56.463Z,11.30
2023-03-31T01:35:57.533Z,11.27
2023-03-31T01:38:57.482Z,11.27
2023-03-31T01:41:25.003Z,11.26
2023-03-31T01:43:36.384Z,11.24
2023-03-31T01:46:21.486Z,11.24
2023-03-31T01:49:14.864Z,11.25
2023-03-31T01:51:33.987Z,11.27
2023-03-31T01:53:55.845Z,11.25
2023-03-31T01:56:08.880Z,11.22
2023-03-31T01:58:14.099Z,11.22
2023-03-31T02:00:20.869Z,11.20
2023-03-31T02:02:30.004Z,11.18
2023-03-31T02:04:46.622Z,11.18
2023-03-31T02:06:57.435Z,11.17
2023-03-31T02:09:09.432Z,11.15
2023-03-31T02:11:14.215Z,11.13
2023-03-31T02:13:19.225Z,11.10
2023-03-31T02:15:28.650Z,11.09
2023-03-31T02:17:32.995Z,11.10
2023-03-31T02:19:39.872Z,11.12
2023-03-31T02:21:43.291Z,11.14
2023-03-31T02:23:50.924Z,11.16
2023-03-31T02:26:00.980Z,11.18
2023-03-31T02:28:14.324Z,11.22
2023-03-31T02:30:17.484Z,11.23
2023-03-31T02:32:28.050Z,11.24
2023-03-31T02:34:31.036Z,11.23
2023-03-31T02:36:36.567Z,11.21
2023-03-31T02:38:46.200Z,11.19
2023-03-31T02:40:49.039Z,11.17
2023-03-31T02:42:52.863Z,11.14
2023-03-31T02:45:02.592Z,11.15
2023-03-31T02:47:10.340Z,11.17
2023-03-31T02:49:14.126Z,11.20
2023-03-31T02:51:41.697Z,11.24
2023-03-31T02:53:59.779Z,11.25
2023-03-31T02:56:27.492Z,11.27
2023-03-31T02:58:34.670Z,11.27
2023-03-31T03:01:25.638Z,11.26
2023-03-31T03:03:35.419Z,11.23
2023-03-31T03:05:58.865Z,11.24
2023-03-31T03:08:55.663Z,11.22
2023-03-31T03:11:05.137Z,11.21
2023-03-31T03:13:46.032Z,11.18
2023-03-31T03:15:58.809Z,11.15
2023-03-31T03:18:03.270Z,11.13
2023-03-31T03:20:09.334Z,11.09
2023-03-31T03:22:15.585Z,11.11
2023-03-31T03:24:19.807Z,11.12
2023-03-31T03:26:24.396Z,11.13
2023-03-31T03:28:27.687Z,11.13
2023-03-31T03:30:30.569Z,11.14
2023-03-31T03:32:34.946Z,11.16
2023-03-31T03:34:39.948Z,11.18
2023-03-31T03:36:43.139Z,11.17
2023-03-31T03:38:47.417Z,11.16
2023-03-31T03:40:53.569Z,11.17
2023-03-31T03:42:56.845Z,11.18
2023-03-31T03:44:59.505Z,11.19
2023-03-31T03:47:02.709Z,11.19
2023-03-31T03:49:05.465Z,11.20
2023-03-31T03:51:09.458Z,11.21
2023-03-31T03:53:13.802Z,11.21
2023-03-31T03:55:17.854Z,11.22
2023-03-31T03:57:22.077Z,11.25
2023-03-31T03:59:24.998Z,11.28
2023-03-31T04:01:29.735Z,11.30
2023-03-31T04:03:33.750Z,11.30
2023-03-31T04:05:36.363Z,11.33
2023-03-31T04:07:38.786Z,11.34
2023-03-31T04:09:41.490Z,11.33
2023-03-31T04:11:44.024Z,11.33
2023-03-31T04:13:47.351Z,11.33
2023-03-31T04:15:51.647Z,11.33
2023-03-31T04:17:56.743Z,11.32
2023-03-31T04:20:09.487Z,11.31
2023-03-31T04:22:16.588Z,11.30
2023-03-31T04:24:21.823Z,11.28
2023-03-31T04:26:39.268Z,11.27
2023-03-31T04:28:50.638Z,11.26
2023-03-31T04:30:58.894Z,11.25
2023-03-31T04:33:06.693Z,11.27
2023-03-31T04:35:16.167Z,11.31
2023-03-31T04:37:18.831Z,11.32
2023-03-31T04:39:31.037Z,11.30
2023-03-31T04:41:34.792Z,11.30
2023-03-31T04:43:39.698Z,11.29
2023-03-31T04:45:44.733Z,11.28
2023-03-31T04:47:48.514Z,11.32
2023-03-31T04:49:52.775Z,11.37
2023-03-31T04:51:56.334Z,11.39
2023-03-31T04:53:58.776Z,11.40
2023-03-31T04:56:01.714Z,11.38
2023-03-31T04:58:04.497Z,11.35
2023-03-31T05:00:14.269Z,11.31
2023-03-31T05:02:25.183Z,11.31
2023-03-31T05:04:28.008Z,11.31
2023-03-31T05:06:31.110Z,11.32
2023-03-31T05:08:34.190Z,11.32
2023-03-31T05:10:37.363Z,11.31
2023-03-31T05:12:40.163Z,11.32
2023-03-31T05:14:44.032Z,11.32
2023-03-31T05:16:46.884Z,11.31
2023-03-31T05:18:49.408Z,11.28
2023-03-31T05:20:51.986Z,11.25
2023-03-31T05:22:54.531Z,11.23
2023-03-31T05:24:57.952Z,11.21
2023-03-31T05:27:02.688Z,11.18
2023-03-31T05:29:05.514Z,11.15
2023-03-31T05:31:09.890Z,11.18
2023-03-31T05:33:12.445Z,11.21
2023-03-31T05:35:16.209Z,11.25
2023-03-31T05:37:20.934Z,11.25
2023-03-31T05:39:23.443Z,11.26
2023-03-31T05:41:27.249Z,11.25
2023-03-31T05:43:32.065Z,11.26
2023-03-31T05:45:35.654Z,11.28
2023-03-31T05:47:39.062Z,11.29
2023-03-31T05:49:41.559Z,11.31
2023-03-31T05:51:44.813Z,11.33
2023-03-31T05:53:47.758Z,11.31
2023-03-31T05:55:50.267Z,11.30
2023-03-31T05:57:53.998Z,11.29
2023-03-31T05:59:56.728Z,11.27
2023-03-31T06:01:59.437Z,11.29
2023-03-31T06:04:03.270Z,11.32
2023-03-31T06:06:08.136Z,11.34
2023-03-31T06:08:11.789Z,11.34
2023-03-31T06:10:16.013Z,11.32
2023-03-31T06:12:20.066Z,11.30
2023-03-31T06:14:23.167Z,11.27
2023-03-31T06:16:26.721Z,11.24
2023-03-31T06:18:31.912Z,11.23
2023-03-31T06:20:36.593Z,11.21
2023-03-31T06:22:39.094Z,11.20
2023-03-31T06:24:41.889Z,11.22
2023-03-31T06:26:47.272Z,11.23
2023-03-31T06:28:49.832Z,11.21
2023-03-31T06:31:03.872Z,11.20
2023-03-31T06:33:07.280Z,11.21
2023-03-31T06:35:10.382Z,11.24
2023-03-31T06:37:12.937Z,11.28
2023-03-31T06:39:15.523Z,11.31
2023-03-31T06:41:22.311Z,11.33
2023-03-31T06:43:25.221Z,11.33
2023-03-31T06:45:27.980Z,11.33
2023-03-31T06:47:31.371Z,11.33
2023-03-31T06:49:33.930Z,11.33
2023-03-31T06:51:39.058Z,11.34
2023-03-31T06:53:42.212Z,11.33
2023-03-31T06:55:47.341Z,11.33
2023-03-31T06:57:49.912Z,11.32
2023-03-31T06:59:53.403Z,11.29
2023-03-31T07:01:58.322Z,11.26
2023-03-31T07:04:01.934Z,11.24
2023-03-31T07:06:06.014Z,11.23
2023-03-31T07:08:14.694Z,11.22
2023-03-31T07:10:21.092Z,11.23
2023-03-31T07:12:24.954Z,11.24
2023-03-31T07:14:27.501Z,11.24
2023-03-31T07:16:32.281Z,11.24
2023-03-31T07:18:36.560Z,11.23
2023-03-31T07:20:39.141Z,11.23
2023-03-31T07:22:48.469Z,11.22
2023-03-31T07:24:58.779Z,11.20
2023-03-31T07:27:03.002Z,11.18
2023-03-31T07:29:06.590Z,11.19
2023-03-31T07:31:16.070Z,11.21
2023-03-31T07:33:18.987Z,11.21
2023-03-31T07:35:23.041Z,11.22
2023-03-31T07:37:26.387Z,11.24
2023-03-31T07:39:29.206Z,11.27
2023-03-31T07:41:32.465Z,11.31
2023-03-31T07:43:35.818Z,11.31
2023-03-31T07:45:39.654Z,11.30
2023-03-31T07:47:44.581Z,11.30
2023-03-31T07:49:48.345Z,11.29
2023-03-31T07:51:51.978Z,11.30
2023-03-31T07:53:55.389Z,11.30
2023-03-31T07:55:58.681Z,11.32
2023-03-31T07:58:08.243Z,11.32
2023-03-31T08:00:12.808Z,11.34
2023-03-31T08:02:17.789Z,11.37
2023-03-31T08:04:22.164Z,11.38
2023-03-31T08:06:26.299Z,11.38
2023-03-31T08:08:30.078Z,11.41
2023-03-31T08:10:32.597Z,11.42
2023-03-31T08:12:35.120Z,11.40
2023-03-31T08:14:41.277Z,11.40
2023-03-31T08:16:45.016Z,11.41
2023-03-31T08:18:48.769Z,11.42
2023-03-31T08:20:51.767Z,11.42
2023-03-31T08:22:55.446Z,11.42
2023-03-31T08:24:58.444Z,11.41
2023-03-31T08:27:01.803Z,11.42
2023-03-31T08:29:06.072Z,11.41
2023-03-31T08:31:10.866Z,11.42
2023-03-31T08:33:15.244Z,11.45
2023-03-31T08:35:19.318Z,11.49
2023-03-31T08:37:22.216Z,11.49
2023-03-31T08:39:26.089Z,11.51
2023-03-31T08:42:08.821Z,11.51
2023-03-31T08:44:21.173Z,11.49
2023-03-31T08:46:28.265Z,11.49
2023-03-31T08:48:38.957Z,11.50
2023-03-31T08:50:48.256Z,11.52
2023-03-31T08:53:07.162Z,11.51
2023-03-31T08:55:22.279Z,11.53
2023-03-31T08:57:32.157Z,11.51
2023-03-31T08:59:39.972Z,11.47
2023-03-31T09:02:02.293Z,11.45
2023-03-31T09:04:29.473Z,11.48
2023-03-31T09:07:10.763Z,11.49
2023-03-31T09:09:32.550Z,11.51
2023-03-31T09:11:40.722Z,11.53
2023-03-31T09:13:59.189Z,11.57
2023-03-31T09:16:17.457Z,11.59
2023-03-31T09:18:32.598Z,11.59
2023-03-31T09:20:41.340Z,11.57
2023-03-31T09:23:00.570Z,11.56
2023-03-31T09:25:28.741Z,11.54
2023-03-31T09:27:39.210Z,11.47
2023-03-31T09:29:43.745Z,11.39
2023-03-31T09:31:47.271Z,11.39
2023-03-31T09:33:55.136Z,11.41
2023-03-31T09:36:02.337Z,11.45
2023-03-31T09:38:05.155Z,11.43
2023-03-31T09:40:14.654Z,11.49
2023-03-31T09:42:19.544Z,11.52
2023-03-31T09:44:28.277Z,11.51
2023-03-31T09:46:35.696Z,11.47
2023-03-31T09:48:40.186Z,11.44
2023-03-31T09:50:51.794Z,11.46
2023-03-31T09:53:00.795Z,11.45
2023-03-31T09:55:35.888Z,11.44
2023-03-31T09:57:40.010Z,11.50
2023-03-31T09:59:44.838Z,11.51
2023-03-31T10:01:52.276Z,11.51
2023-03-31T10:03:58.357Z,11.50
2023-03-31T10:06:01.371Z,11.47
2023-03-31T10:08:21.094Z,11.44
2023-03-31T10:10:33.263Z,11.42
2023-03-31T10:12:37.584Z,11.43
2023-03-31T10:14:45.302Z,11.41
2023-03-31T10:16:52.991Z,11.43
2023-03-31T10:19:17.535Z,11.43
2023-03-31T10:21:26.384Z,11.48
2023-03-31T10:23:34.802Z,11.53
2023-03-31T10:25:38.896Z,11.60
2023-03-31T10:27:42.371Z,11.62
2023-03-31T10:29:47.270Z,11.64
2023-03-31T10:31:52.236Z,11.64
2023-03-31T10:33:59.321Z,11.64
2023-03-31T10:36:20.448Z,11.63
2023-03-31T10:38:29.142Z,11.58
2023-03-31T10:40:36.403Z,11.52
2023-03-31T10:42:39.543Z,11.48
2023-03-31T10:44:45.056Z,11.45
2023-03-31T10:46:52.962Z,11.40
2023-03-31T10:49:00.394Z,11.36
2023-03-31T10:51:17.338Z,11.35
2023-03-31T10:53:21.217Z,11.34
2023-03-31T10:55:32.137Z,11.36
2023-03-31T10:57:45.440Z,11.41
2023-03-31T11:00:01.904Z,11.43
2023-03-31T11:02:35.678Z,11.48
2023-03-31T11:05:15.926Z,11.53
2023-03-31T11:07:43.464Z,11.55
2023-03-31T11:10:25.670Z,11.56
2023-03-31T11:12:58.873Z,11.58
2023-03-31T11:15:33.324Z,11.58
2023-03-31T11:17:57.114Z,11.57
2023-03-31T11:20:14.944Z,11.60
2023-03-31T11:22:34.323Z,11.62
2023-03-31T11:25:03.436Z,11.65
2023-03-31T11:27:42.129Z,11.68
2023-03-31T11:30:18.037Z,11.76
2023-03-31T11:32:30.718Z,11.75
2023-03-31T11:34:55.669Z,11.72
2023-03-31T11:37:25.777Z,11.71
2023-03-31T11:40:07.999Z,11.69
2023-03-31T11:42:20.017Z,11.67
2023-03-31T11:44:25.958Z,11.65
2023-03-31T11:46:36.863Z,11.66
2023-03-31T11:48:59.157Z,11.65
2023-03-31T11:51:12.010Z,11.65
2023-03-31T11:53:22.587Z,11.67
2023-03-31T11:55:29.752Z,11.73
2023-03-31T11:57:41.679Z,11.80
2023-03-31T11:59:54.884Z,11.88
2023-03-31T12:02:20.393Z,11.94
2023-03-31T12:04:40.903Z,11.96
2023-03-31T12:06:49.945Z,12.00
2023-03-31T12:08:58.484Z,12.03
2023-03-31T12:11:09.519Z,12.06
2023-03-31T12:13:31.447Z,12.06
2023-03-31T12:15:51.650Z,12.06
2023-03-31T12:18:13.822Z,12.06
2023-03-31T12:20:59.198Z,12.08
2023-03-31T12:23:09.228Z,12.11
2023-03-31T12:25:19.998Z,12.12
2023-03-31T12:27:42.337Z,12.16
2023-03-31T12:29:59.403Z,12.21
2023-03-31T12:32:11.602Z,12.26
2023-03-31T12:34:18.319Z,12.31
2023-03-31T12:36:39.068Z,12.35
2023-03-31T12:39:10.128Z,12.39
2023-03-31T12:41:23.700Z,12.42
2023-03-31T12:43:48.848Z,12.43
2023-03-31T12:46:32.920Z,12.42
2023-03-31T12:49:00.158Z,12.41
2023-03-31T12:51:11.739Z,12.43
2023-03-31T12:53:33.509Z,12.45
2023-03-31T12:55:57.957Z,12.46
2023-03-31T12:58:26.963Z,12.45
2023-03-31T13:00:30.709Z,12.43
2023-03-31T13:02:33.504Z,12.38
2023-03-31T13:04:38.353Z,12.37
2023-03-31T13:06:41.632Z,12.39
2023-03-31T13:09:06.043Z,12.42
2023-03-31T13:11:12.462Z,12.44
2023-03-31T13:13:39.427Z,12.44
2023-03-31T13:16:33.548Z,12.41
2023-03-31T13:19:13.721Z,12.37
2023-03-31T13:22:09.504Z,12.33
2023-03-31T13:24:47.491Z,12.30
2023-03-31T13:28:04.606Z,12.25
2023-03-31T13:30:53.717Z,12.18
2023-03-31T13:33:37.084Z,12.14
2023-03-31T13:36:45.590Z,12.09
2023-03-31T13:39:58.607Z,12.05
2023-03-31T13:43:00.624Z,12.10
2023-03-31T13:46:16.708Z,12.21
2023-03-31T13:49:31.593Z,12.33
2023-03-31T13:52:16.559Z,12.45
2023-03-31T13:55:46.861Z,12.55
2023-03-31T13:59:04.588Z,12.63
2023-03-31T14:01:50.637Z,12.71
2023-03-31T14:05:10.779Z,12.75
2023-03-31T14:08:00.744Z,12.80
2023-03-31T14:10:48.912Z,12.81
2023-03-31T14:13:30.160Z,12.82
2023-03-31T14:16:12.083Z,12.87
2023-03-31T14:18:55.878Z,12.93
2023-03-31T14:21:44.823Z,12.93
2023-03-31T14:24:30.581Z,12.98
2023-03-31T14:27:47.326Z,13.00
2023-03-31T14:31:05.638Z,13.02
2023-03-31T14:34:01.618Z,13.07
2023-03-31T14:37:11.762Z,13.12
2023-03-31T14:39:54.617Z,13.16
2023-03-31T14:42:36.761Z,13.21
2023-03-31T14:45:20.781Z,13.23
2023-03-31T14:48:20.420Z,13.20
2023-03-31T14:51:00.851Z,13.19
2023-03-31T14:53:44.389Z,13.22
2023-03-31T14:56:25.677Z,13.23
2023-03-31T14:59:13.525Z,13.28
2023-03-31T15:01:51.892Z,13.45
2023-03-31T15:04:42.049Z,13.61
2023-03-31T15:07:21.651Z,13.75
2023-03-31T15:10:07.213Z,13.75
2023-03-31T15:12:44.713Z,13.67
2023-03-31T15:15:27.671Z,13.57
2023-03-31T15:18:04.698Z,13.47
2023-03-31T15:20:51.746Z,13.38
2023-03-31T15:23:39.873Z,13.30
2023-03-31T15:26:28.036Z,13.24
2023-03-31T15:29:24.725Z,13.19
2023-03-31T15:32:04.198Z,13.16
2023-03-31T15:34:50.229Z,13.10
2023-03-31T15:37:28.718Z,13.07
2023-03-31T15:40:06.621Z,13.27
2023-03-31T15:43:01.498Z,13.96
2023-03-31T15:45:48.044Z,14.19
2023-03-31T15:49:01.332Z,14.11
2023-03-31T15:51:48.899Z,13.94
2023-03-31T15:54:51.727Z,13.83
2023-03-31T15:57:31.742Z,13.72
2023-03-31T16:00:12.472Z,13.63
2023-03-31T16:02:55.902Z,13.53
2023-03-31T16:05:54.411Z,13.42
2023-03-31T16:08:44.765Z,13.27
2023-03-31T16:11:26.845Z,13.08
2023-03-31T16:14:09.637Z,12.91
2023-03-31T16:16:47.779Z,12.81
2023-03-31T16:19:26.805Z,12.88
2023-03-31T16:22:11.809Z,13.06
2023-03-31T16:24:51.748Z,13.13
2023-03-31T16:27:32.835Z,13.71
2023-03-31T16:30:30.086Z,14.68
2023-03-31T16:33:23.809Z,15.60
2023-03-31T16:36:07.193Z,16.15
2023-03-31T16:38:47.876Z,16.61
2023-03-31T16:41:24.790Z,16.70
2023-03-31T16:44:01.885Z,16.76
2023-03-31T16:46:39.192Z,16.61
2023-03-31T16:49:15.862Z,16.28
2023-03-31T16:52:03.910Z,15.61
2023-03-31T16:54:42.236Z,15.10
2023-03-31T16:57:20.854Z,14.64
2023-03-31T16:59:59.039Z,14.28
2023-03-31T17:02:40.042Z,13.98
2023-03-31T17:05:16.966Z,13.73
2023-03-31T17:07:55.843Z,13.50
2023-03-31T17:10:34.977Z,13.31
2023-03-31T17:13:16.630Z,13.14
2023-03-31T17:16:01.396Z,12.97
2023-03-31T17:18:52.796Z,12.80
2023-03-31T17:21:31.940Z,12.69
2023-03-31T17:24:09.097Z,12.57
2023-03-31T17:26:46.911Z,12.46
2023-03-31T17:29:23.877Z,12.35
2023-03-31T17:32:04.224Z,12.24
2023-03-31T17:34:40.911Z,12.11
2023-03-31T17:37:18.362Z,11.91
2023-03-31T17:39:55.056Z,11.72
2023-03-31T17:42:32.903Z,11.62
2023-03-31T17:45:12.013Z,11.55
2023-03-31T17:47:48.970Z,11.47
2023-03-31T17:50:25.962Z,11.38
2023-03-31T17:53:02.924Z,11.33
2023-03-31T17:55:41.037Z,11.32
2023-03-31T17:58:19.981Z,11.30
2023-03-31T18:00:59.957Z,11.27
2023-03-31T18:03:38.176Z,11.24
2023-03-31T18:06:25.093Z,11.25
2023-03-31T18:09:05.069Z,11.22
2023-03-31T18:11:41.990Z,11.20
2023-03-31T18:14:20.972Z,11.17
2023-03-31T18:17:00.921Z,11.12
2023-03-31T18:19:40.256Z,11.06
2023-03-31T18:22:13.962Z,11.00
2023-03-31T18:24:53.008Z,10.96
2023-03-31T18:27:30.056Z,10.95
2023-03-31T18:30:07.057Z,10.93
2023-03-31T18:32:45.085Z,10.92
2023-03-31T18:35:23.198Z,10.91
2023-03-31T18:38:03.068Z,10.92
2023-03-31T18:40:41.001Z,10.93
2023-03-31T18:43:19.224Z,10.92
2023-03-31T18:45:56.977Z,10.90
2023-03-31T18:48:35.210Z,10.90
2023-03-31T18:51:12.019Z,10.90
2023-03-31T18:53:49.150Z,10.88
2023-03-31T18:56:28.109Z,10.86
2023-03-31T18:59:14.168Z,10.87
2023-03-31T19:01:52.284Z,10.83
2023-03-31T19:04:30.085Z,10.81
2023-03-31T19:07:10.336Z,10.80
2023-03-31T19:09:47.068Z,10.82
2023-03-31T19:12:26.422Z,10.85
2023-03-31T19:15:03.053Z,10.90
2023-03-31T19:17:40.109Z,10.94
2023-03-31T19:20:24.426Z,10.98
2023-03-31T19:23:07.195Z,11.00
2023-03-31T19:25:46.134Z,11.02
2023-03-31T19:28:30.203Z,11.02
2023-03-31T19:31:14.414Z,11.02
2023-03-31T19:36:33.491Z,10.99
2023-03-31T19:39:15.820Z,10.99
2023-03-31T19:41:52.305Z,10.98
2023-03-31T19:44:32.549Z,10.96
2023-03-31T19:47:11.876Z,10.96
2023-03-31T19:49:50.182Z,10.99
2023-03-31T19:52:30.105Z,11.01
2023-03-31T19:55:15.274Z,11.00
2023-03-31T19:57:52.336Z,11.01
2023-03-31T20:00:33.556Z,11.00
2023-03-31T20:03:11.605Z,11.00
2023-03-31T20:05:51.125Z,11.00
2023-03-31T20:08:31.161Z,10.99
2023-03-31T20:11:14.299Z,10.97
2023-03-31T20:13:53.370Z,10.98
2023-03-31T20:16:38.669Z,11.00
2023-03-31T20:19:21.667Z,11.05
2023-03-31T20:22:04.099Z,11.07
2023-03-31T20:24:42.251Z,11.07
2023-03-31T20:27:20.842Z,11.08
2023-03-31T20:29:58.753Z,11.07
2023-03-31T20:32:37.243Z,11.04
2023-03-31T20:35:16.179Z,11.03
2023-03-31T20:37:53.509Z,11.00
2023-03-31T20:40:30.224Z,10.94
2023-03-31T20:43:08.220Z,10.90
2023-03-31T20:45:45.271Z,10.86
2023-03-31T20:48:22.227Z,10.87
2023-03-31T20:50:59.235Z,10.89
2023-03-31T20:53:36.149Z,10.87
2023-03-31T20:56:14.294Z,10.83
2023-03-31T20:58:54.212Z,10.78
2023-03-31T21:01:32.655Z,10.71
2023-03-31T21:04:09.227Z,10.66
2023-03-31T21:06:55.496Z,10.64
2023-03-31T21:09:35.057Z,10.61
2023-03-31T21:12:14.723Z,10.59
2023-03-31T21:14:52.302Z,10.62
2023-03-31T21:17:34.272Z,10.65
2023-03-31T21:20:11.207Z,10.68
2023-03-31T21:22:48.251Z,10.68
2023-03-31T21:25:27.316Z,10.67
2023-03-31T21:28:08.079Z,10.67
2023-03-31T21:30:45.334Z,10.67
2023-03-31T21:33:22.332Z,10.69
2023-03-31T21:36:01.601Z,10.70
2023-03-31T21:38:39.329Z,10.69
2023-03-31T21:41:32.831Z,10.66
2023-03-31T21:44:11.333Z,10.62
2023-03-31T21:46:52.908Z,10.64
2023-03-31T21:49:32.873Z,10.66
2023-03-31T21:52:09.321Z,10.68
2023-03-31T21:54:47.340Z,10.69
2023-03-31T21:57:27.202Z,10.72
2023-03-31T22:00:04.536Z,10.73
2023-03-31T22:02:42.444Z,10.71
2023-03-31T22:05:20.375Z,10.71
2023-03-31T22:07:57.441Z,10.71
2023-03-31T22:10:36.331Z,10.69
2023-03-31T22:13:15.323Z,10.66
2023-03-31T22:15:57.304Z,10.67
2023-03-31T22:18:36.243Z,10.69
2023-03-31T22:21:14.653Z,10.68
2023-03-31T22:23:53.417Z,10.69
2023-03-31T22:26:36.358Z,10.68
2023-03-31T22:29:13.353Z,10.71
2023-03-31T22:31:50.359Z,10.69
2023-03-31T22:34:29.325Z,10.68
2023-03-31T22:37:06.353Z,10.66
2023-03-31T22:39:43.488Z,10.63
2023-03-31T22:42:20.367Z,10.60
2023-03-31T22:44:58.824Z,10.56
2023-03-31T22:47:35.383Z,10.59
2023-03-31T22:50:16.497Z,10.60
2023-03-31T22:52:57.624Z,10.58
2023-03-31T22:55:38.374Z,10.58
2023-03-31T22:58:23.379Z,10.58
2023-03-31T23:01:09.365Z,10.55
2023-03-31T23:03:46.446Z,10.53
2023-03-31T23:06:28.720Z,10.54
2023-03-31T23:09:06.546Z,10.57
2023-03-31T23:11:43.364Z,10.59
2023-03-31T23:14:25.408Z,10.58
2023-03-31T23:17:02.459Z,10.61
2023-03-31T23:19:40.408Z,10.62
2023-03-31T23:22:17.423Z,10.65
2023-03-31T23:24:54.421Z,10.64
2023-03-31T23:27:31.432Z,10.65
2023-03-31T23:30:08.490Z,10.63
2023-03-31T23:32:45.519Z,10.61
2023-03-31T23:35:24.827Z,10.61
2023-03-31T23:38:01.469Z,10.59
2023-03-31T23:40:38.758Z,10.56
2023-03-31T23:43:15.554Z,10.56
2023-03-31T23:45:52.466Z,10.56
2023-03-31T23:48:31.489Z,10.57
2023-03-31T23:51:09.484Z,10.60
2023-03-31T23:53:46.506Z,10.56
2023-03-31T23:56:26.495Z,10.55
2023-03-31T23:59:03.472Z,10.51
